Time;durP1;ratioP1;P1;durP2;ratioP2;P2;SDS_P1;SDS_P2;PMS_P1;PMS_P2;Temp;Humidity;BMP_temperature;BMP_pressure;BME280_temperature;BME280_humidity;BME280_pressure;Samples;Min_cycle;Max_cycle;Signal;HPM_P1;HPM_P2
2022/03/30 00:01:16;;;;;;;15.90;6.55;;;;;;;5.21;64.11;99539.53;5056202;28;20064;-58
2022/03/30 00:03:41;;;;;;;14.65;6.68;;;;;;;5.11;64.24;99540.56;5055757;28;20044;-59
2022/03/30 00:06:08;;;;;;;9.65;5.90;;;;;;;4.84;64.85;99533.94;5056541;28;20048;-58
2022/03/30 00:08:34;;;;;;;15.02;6.60;;;;;;;4.62;65.71;99538.50;5058085;28;20615;-58
2022/03/30 00:11:00;;;;;;;12.60;6.57;;;;;;;4.54;65.79;99530.78;5073504;28;20139;-58
2022/03/30 00:13:26;;;;;;;12.38;6.50;;;;;;;4.46;65.97;99535.22;5075689;28;20115;-58
2022/03/30 00:15:51;;;;;;;13.68;6.50;;;;;;;4.46;66.18;99530.00;5075615;28;20162;-58
2022/03/30 00:18:17;;;;;;;17.08;7.38;;;;;;;4.38;66.49;99539.63;5072921;28;20111;-58
2022/03/30 00:20:43;;;;;;;19.05;9.10;;;;;;;4.34;66.73;99531.00;5072358;28;20202;-58
2022/03/30 00:23:09;;;;;;;13.50;7.68;;;;;;;4.29;66.72;99518.94;5068440;28;20056;-58
2022/03/30 00:25:34;;;;;;;16.25;7.53;;;;;;;4.32;66.72;99513.69;5055724;28;20060;-58
2022/03/30 00:28:01;;;;;;;17.33;8.07;;;;;;;4.39;66.54;99520.56;5063918;28;20028;-58
2022/03/30 00:30:26;;;;;;;19.95;8.68;;;;;;;4.40;66.40;99514.47;5073623;28;20051;-59
2022/03/30 00:32:52;;;;;;;18.80;8.20;;;;;;;4.50;66.17;99516.09;5055493;28;20040;-59
2022/03/30 00:35:18;;;;;;;16.60;7.65;;;;;;;4.59;65.90;99512.56;5060793;28;20073;-58
2022/03/30 00:37:43;;;;;;;13.38;6.38;;;;;;;4.65;65.80;99504.66;5063325;28;20128;-58
2022/03/30 00:40:13;;;;;;;12.98;6.53;;;;;;;4.65;65.67;99505.50;5075031;28;20044;-59
2022/03/30 00:42:38;;;;;;;11.07;5.53;;;;;;;4.67;65.39;99498.56;5074811;28;20089;-58
2022/03/30 00:45:13;;;;;;;13.80;6.22;;;;;;;4.69;65.37;99501.13;5074987;28;20411;-58
2022/03/30 00:47:39;;;;;;;13.68;6.47;;;;;;;4.70;65.29;99498.50;5074840;28;20112;-58
2022/03/30 00:50:07;;;;;;;16.95;7.70;;;;;;;4.74;65.08;99488.94;5073208;28;20032;-59
2022/03/30 00:52:32;;;;;;;14.00;6.28;;;;;;;4.81;65.12;99482.78;5069126;28;20075;-58
2022/03/30 00:54:58;;;;;;;17.77;7.55;;;;;;;4.91;64.54;99484.41;5054422;28;20072;-58
2022/03/30 00:57:24;;;;;;;11.15;6.47;;;;;;;4.94;64.50;99483.47;5054123;28;20045;-58
2022/03/30 00:59:50;;;;;;;11.88;6.65;;;;;;;4.99;64.42;99479.09;5054428;28;20049;-58
2022/03/30 01:02:17;;;;;;;19.13;8.52;;;;;;;5.02;64.14;99463.41;5053229;28;20436;-57
2022/03/30 01:04:45;;;;;;;17.20;7.18;;;;;;;5.07;64.12;99472.03;5055173;28;20043;-58
2022/03/30 01:07:12;;;;;;;14.18;6.95;;;;;;;5.12;63.89;99469.34;5069669;28;20075;-58
2022/03/30 01:09:38;;;;;;;14.88;7.43;;;;;;;5.17;63.83;99463.19;5065466;28;20037;-58
2022/03/30 01:12:04;;;;;;;16.60;8.05;;;;;;;5.24;63.57;99465.72;5063138;28;20064;-58
2022/03/30 01:14:31;;;;;;;17.08;7.95;;;;;;;5.30;63.43;99470.81;5055141;28;20032;-58
2022/03/30 01:16:57;;;;;;;16.13;7.75;;;;;;;5.35;63.13;99471.66;5054618;28;20036;-58
2022/03/30 01:19:28;;;;;;;16.40;8.18;;;;;;;5.38;63.11;99467.22;5054518;28;20029;-58
2022/03/30 01:21:54;;;;;;;16.42;8.55;;;;;;;5.49;62.74;99463.59;5054206;28;20041;-57
2022/03/30 01:24:19;;;;;;;20.83;8.55;;;;;;;5.55;62.45;99459.16;5055270;28;20044;-59
2022/03/30 01:26:45;;;;;;;20.10;7.80;;;;;;;5.63;62.52;99459.91;5069964;28;20127;-58
2022/03/30 01:34:40;;;;;;;15.20;7.13;;;;;;;5.86;61.41;99453.41;5071950;28;20495;-58
2022/03/30 01:37:07;;;;;;;16.65;6.70;;;;;;;5.89;61.16;99451.63;5066927;28;20025;-59
2022/03/30 01:39:32;;;;;;;12.43;5.88;;;;;;;5.96;60.93;99456.78;5064145;28;20032;-58
2022/03/30 01:41:58;;;;;;;11.85;5.80;;;;;;;6.01;60.71;99447.97;5065448;28;20044;-59
2022/03/30 01:44:24;;;;;;;16.00;6.97;;;;;;;6.06;60.53;99451.34;5072009;28;20032;-58
2022/03/30 01:46:50;;;;;;;14.55;7.25;;;;;;;6.08;60.39;99446.97;5071389;28;20170;-58
2022/03/30 01:49:22;;;;;;;18.02;7.85;;;;;;;6.08;60.42;99454.81;5069171;28;20107;-58
2022/03/30 01:51:52;;;;;;;16.02;7.28;;;;;;;6.00;60.41;99441.06;5071059;28;20043;-58
2022/03/30 01:54:19;;;;;;;15.07;6.57;;;;;;;6.01;60.59;99452.34;5070551;28;20400;-59
2022/03/30 01:56:45;;;;;;;14.23;6.82;;;;;;;5.87;60.75;99449.94;5069895;28;20028;-58
2022/03/30 01:59:11;;;;;;;11.05;5.88;;;;;;;5.64;61.26;99447.72;5064271;28;20051;-58
2022/03/30 02:01:37;;;;;;;12.82;5.80;;;;;;;5.33;62.09;99444.75;5053646;28;20037;-58
2022/03/30 02:04:03;;;;;;;11.18;5.53;;;;;;;5.01;62.93;99450.41;5067565;28;20473;-58
2022/03/30 02:06:28;;;;;;;10.15;5.22;;;;;;;4.80;63.53;99441.16;5053538;28;20492;-58
2022/03/30 02:08:54;;;;;;;10.73;4.80;;;;;;;4.70;63.87;99436.06;5069238;28;20036;-58
2022/03/30 02:11:19;;;;;;;9.55;4.93;;;;;;;4.64;63.90;99436.16;5071385;28;20421;-58
2022/03/30 02:13:45;;;;;;;13.55;5.35;;;;;;;4.63;64.20;99439.63;5056028;28;20064;-57
2022/03/30 02:16:11;;;;;;;12.82;5.20;;;;;;;4.58;64.29;99440.56;5054556;28;20037;-58
2022/03/30 02:18:36;;;;;;;10.05;4.72;;;;;;;4.61;64.33;99435.31;5053711;28;20033;-58
2022/03/30 02:21:02;;;;;;;9.07;4.40;;;;;;;4.65;64.33;99435.25;5053716;28;20063;-58
2022/03/30 02:23:27;;;;;;;12.00;5.13;;;;;;;4.69;63.95;99438.69;5067605;28;20028;-58
2022/03/30 02:25:53;;;;;;;9.60;4.45;;;;;;;4.78;63.79;99432.50;5053959;28;20045;-58
2022/03/30 02:28:18;;;;;;;8.65;4.32;;;;;;;4.85;63.64;99423.72;5054205;28;20028;-58
2022/03/30 02:30:44;;;;;;;11.43;4.30;;;;;;;4.96;63.42;99421.00;5053850;28;20395;-58
2022/03/30 02:33:09;;;;;;;10.88;4.75;;;;;;;5.02;63.22;99424.34;5053137;28;20389;-59
2022/03/30 02:35:35;;;;;;;12.82;5.25;;;;;;;5.05;62.97;99421.72;5054420;28;20037;-58
2022/03/30 02:38:00;;;;;;;13.70;5.32;;;;;;;5.10;62.98;99425.09;5058197;28;20112;-58
2022/03/30 02:40:26;;;;;;;14.43;6.45;;;;;;;5.13;62.83;99413.78;5072281;28;20064;-59
2022/03/30 02:42:51;;;;;;;16.05;6.43;;;;;;;5.17;62.65;99420.66;5070993;28;20456;-58
2022/03/30 02:45:16;;;;;;;11.98;5.50;;;;;;;5.17;62.65;99420.66;5073308;28;20051;-58
2022/03/30 02:50:26;;;;;;;11.52;5.32;;;;;;;5.30;62.20;99416.97;5070933;28;20040;-58
2022/03/30 02:52:52;;;;;;;11.68;5.00;;;;;;;5.26;62.38;99415.31;5068484;28;20041;-58
2022/03/30 02:55:17;;;;;;;10.85;4.90;;;;;;;5.35;62.10;99409.13;5070605;28;20388;-58
2022/03/30 02:57:43;;;;;;;9.05;4.57;;;;;;;5.34;62.13;99404.78;5068619;28;20028;-58
2022/03/30 03:00:09;;;;;;;8.98;4.70;;;;;;;5.41;62.10;99407.25;5070798;28;20044;-58
2022/03/30 03:02:34;;;;;;;8.85;4.00;;;;;;;5.43;61.69;99407.25;5054245;28;20073;-57
2022/03/30 03:05:01;;;;;;;9.95;4.13;;;;;;;5.43;61.68;99409.84;5053814;28;20137;-58
2022/03/30 03:07:27;;;;;;;7.68;3.50;;;;;;;5.43;61.54;99408.09;5055463;28;20037;-58
2022/03/30 03:09:53;;;;;;;9.48;3.83;;;;;;;5.38;61.48;99402.09;5073069;28;20035;-58
2022/03/30 03:12:18;;;;;;;7.55;3.95;;;;;;;5.44;61.60;99402.00;5070822;28;20072;-58
2022/03/30 03:14:44;;;;;;;7.53;3.80;;;;;;;5.38;61.64;99398.63;5053276;28;20025;-58
2022/03/30 03:17:09;;;;;;;10.00;4.03;;;;;;;5.37;61.64;99396.91;5053740;28;20098;-58
2022/03/30 03:19:35;;;;;;;11.38;4.47;;;;;;;5.31;61.75;99395.28;5064645;28;20457;-58
2022/03/30 03:22:00;;;;;;;8.25;4.00;;;;;;;5.13;61.88;99399.00;5062839;28;20457;-58
2022/03/30 03:24:25;;;;;;;8.77;3.75;;;;;;;5.02;62.28;99395.72;5057124;28;20033;-57
2022/03/30 03:26:51;;;;;;;9.90;4.50;;;;;;;4.94;62.28;99393.22;5059022;28;20033;-58
2022/03/30 03:29:17;;;;;;;11.63;4.28;;;;;;;4.80;62.70;99397.78;5074149;28;20593;-57
2022/03/30 03:31:42;;;;;;;8.73;4.35;;;;;;;4.58;63.19;99399.78;5073697;28;20036;-58
2022/03/30 03:34:08;;;;;;;12.50;4.95;;;;;;;4.33;63.88;99398.38;5060279;28;20033;-57
2022/03/30 03:36:34;;;;;;;8.55;3.80;;;;;;;4.20;63.94;99401.13;5056998;28;20476;-57
2022/03/30 03:39:00;;;;;;;9.95;4.20;;;;;;;4.18;64.14;99389.00;5060021;28;20040;-58
2022/03/30 03:41:26;;;;;;;9.10;3.60;;;;;;;4.06;64.34;99383.94;5071161;28;20040;-58
2022/03/30 03:43:52;;;;;;;8.43;3.58;;;;;;;4.08;64.39;99387.41;5077349;28;20123;-58
2022/03/30 03:46:17;;;;;;;7.93;3.95;;;;;;;3.94;64.68;99380.59;5059633;28;20025;-58
2022/03/30 03:48:43;;;;;;;11.35;4.18;;;;;;;3.87;64.93;99391.97;5056292;28;20463;-58
2022/03/30 03:51:09;;;;;;;8.95;4.10;;;;;;;3.79;65.08;99391.19;5054766;28;20532;-59
2022/03/30 03:53:35;;;;;;;9.38;4.13;;;;;;;3.75;65.27;99388.59;5066602;28;20115;-58
2022/03/30 03:56:04;;;;;;;8.40;3.78;;;;;;;3.77;65.52;99392.91;5075957;28;20080;-58
2022/03/30 03:58:30;;;;;;;10.68;4.05;;;;;;;3.63;65.54;99387.88;5073392;28;20056;-59
2022/03/30 04:00:55;;;;;;;10.85;5.57;;;;;;;3.53;65.90;99388.81;5075950;28;20086;-58
2022/03/30 04:03:21;;;;;;;11.02;5.78;;;;;;;3.48;65.97;99393.19;5073116;28;20040;-57
2022/03/30 04:05:46;;;;;;;18.63;5.50;;;;;;;3.48;65.92;99385.41;5075692;28;20078;-58
2022/03/30 04:08:12;;;;;;;12.25;6.88;;;;;;;3.43;66.14;99387.16;5068025;28;20373;-58
2022/03/30 04:10:38;;;;;;;14.80;7.10;;;;;;;3.37;66.40;99379.44;5055754;28;20041;-58
2022/03/30 04:13:07;;;;;;;14.60;6.70;;;;;;;3.37;66.39;99389.81;5059706;28;20031;-55
2022/03/30 04:15:37;;;;;;;10.88;5.80;;;;;;;3.26;66.80;99383.84;5075553;28;20032;-57
2022/03/30 04:18:04;;;;;;;13.88;6.45;;;;;;;3.29;66.88;99379.50;5073188;28;20024;-58
2022/03/30 04:20:30;;;;;;;15.27;6.30;;;;;;;3.31;66.72;99382.97;5075473;28;20113;-58
2022/03/30 04:22:57;;;;;;;10.63;5.50;;;;;;;3.27;66.84;99385.56;5073059;28;20384;-58
2022/03/30 04:25:23;;;;;;;12.63;5.18;;;;;;;3.18;66.99;99381.31;5075156;28;20435;-58
2022/03/30 04:27:51;;;;;;;10.20;4.88;;;;;;;3.19;67.21;99389.09;5072631;28;20028;-59
2022/03/30 04:30:18;;;;;;;12.30;4.57;;;;;;;3.12;67.37;99394.34;5074358;28;20078;-58
2022/03/30 04:32:44;;;;;;;15.05;5.15;;;;;;;3.08;67.51;99393.50;5074614;28;20045;-57
2022/03/30 04:35:11;;;;;;;13.77;4.82;;;;;;;3.07;67.50;99399.59;5073178;28;20395;-58
2022/03/30 04:37:37;;;;;;;12.70;4.78;;;;;;;3.01;67.61;99403.94;5060935;28;20041;-59
2022/03/30 04:40:03;;;;;;;11.30;5.57;;;;;;;2.95;67.83;99405.72;5054826;28;20037;-59
2022/03/30 04:42:28;;;;;;;12.27;5.85;;;;;;;2.87;67.94;99398.81;5069833;28;20051;-58
2022/03/30 04:44:54;;;;;;;13.13;5.85;;;;;;;2.78;68.30;99402.34;5074994;28;20032;-58
2022/03/30 04:47:19;;;;;;;12.95;5.88;;;;;;;2.79;67.96;99411.84;5072356;28;20535;-59
2022/03/30 04:49:44;;;;;;;15.00;5.57;;;;;;;2.84;67.86;99402.31;5074843;28;20040;-58
2022/03/30 04:52:10;;;;;;;13.65;6.18;;;;;;;2.74;68.56;99398.03;5072240;28;20048;-59
2022/03/30 04:54:35;;;;;;;17.05;6.18;;;;;;;2.70;68.74;99406.72;5073396;28;20059;-60
2022/03/30 04:57:01;;;;;;;15.32;6.40;;;;;;;2.69;68.81;99398.06;5072049;28;20071;-59
2022/03/30 04:59:26;;;;;;;11.75;5.32;;;;;;;2.79;68.52;99398.00;5073868;28;20088;-59
2022/03/30 05:01:52;;;;;;;13.43;5.20;;;;;;;2.78;68.45;99391.97;5071813;28;20043;-59
2022/03/30 05:04:17;;;;;;;15.32;5.03;;;;;;;2.74;69.10;99403.22;5074355;28;20111;-58
2022/03/30 05:06:43;;;;;;;10.18;4.57;;;;;;;2.80;68.74;99397.16;5072788;28;20104;-58
2022/03/30 05:09:08;;;;;;;12.13;4.05;;;;;;;2.92;68.64;99399.69;5074657;28;20032;-58
2022/03/30 05:11:33;;;;;;;11.70;4.40;;;;;;;3.01;68.39;99402.19;5064849;28;20502;-58
2022/03/30 05:13:59;;;;;;;12.35;4.80;;;;;;;3.07;68.28;99401.28;5054187;28;20517;-57
2022/03/30 05:16:24;;;;;;;13.05;5.00;;;;;;;3.07;68.09;99403.88;5055412;28;20578;-56
2022/03/30 05:18:50;;;;;;;13.25;4.80;;;;;;;3.07;68.58;99409.06;5054130;28;20400;-58
2022/03/30 05:21:16;;;;;;;12.50;4.75;;;;;;;3.10;68.48;99409.06;5055969;28;20051;-58
2022/03/30 05:23:41;;;;;;;10.60;4.38;;;;;;;3.14;68.53;99410.75;5062505;28;20368;-58
2022/03/30 05:26:07;;;;;;;12.20;6.68;;;;;;;3.19;68.57;99415.06;5071424;28;20090;-57
2022/03/30 05:28:32;;;;;;;13.07;7.13;;;;;;;3.30;68.60;99416.69;5074082;28;20039;-57
2022/03/30 05:30:58;;;;;;;18.65;9.70;;;;;;;3.36;68.27;99427.06;5068549;28;20048;-59
2022/03/30 05:33:23;;;;;;;34.00;24.52;;;;;;;3.45;68.33;99425.25;5055151;28;20402;-58
2022/03/30 05:35:50;;;;;;;23.25;17.77;;;;;;;3.61;68.12;99425.13;5064246;28;20455;-58
2022/03/30 05:38:16;;;;;;;16.52;9.75;;;;;;;3.75;67.54;99433.66;5057400;28;20029;-58
2022/03/30 05:40:42;;;;;;;15.13;7.18;;;;;;;3.84;67.23;99446.56;5073013;28;20060;-59
2022/03/30 05:43:07;;;;;;;14.88;7.85;;;;;;;3.80;67.78;99462.19;5073445;28;20165;-59
2022/03/30 05:45:32;;;;;;;15.18;6.47;;;;;;;3.90;67.01;99453.44;5073747;28;20036;-59
2022/03/30 05:47:59;;;;;;;15.48;6.90;;;;;;;4.00;66.52;99460.28;5073462;28;20417;-59
2022/03/30 05:50:25;;;;;;;14.38;6.55;;;;;;;4.12;66.01;99467.94;5073545;28;20032;-59
2022/03/30 05:52:51;;;;;;;14.00;6.82;;;;;;;4.20;65.86;99468.72;5073750;28;20036;-59
2022/03/30 05:55:17;;;;;;;13.82;6.75;;;;;;;4.24;65.64;99466.09;5073517;28;20029;-59
2022/03/30 05:57:43;;;;;;;18.63;6.55;;;;;;;4.42;65.04;99465.88;5073330;28;20041;-59
2022/03/30 06:00:10;;;;;;;15.70;7.25;;;;;;;4.45;65.04;99465.88;5073348;28;20040;-59
2022/03/30 06:02:37;;;;;;;33.97;14.93;;;;;;;4.63;64.71;99459.59;5073318;28;20025;-58
2022/03/30 06:05:03;;;;;;;24.17;9.68;;;;;;;4.73;64.65;99462.94;5073611;28;20621;-59
2022/03/30 06:07:29;;;;;;;18.88;8.27;;;;;;;4.77;64.53;99462.00;5073843;28;20063;-59
2022/03/30 06:09:54;;;;;;;17.33;8.57;;;;;;;4.85;64.48;99470.59;5073490;28;20067;-59
2022/03/30 06:12:20;;;;;;;14.50;7.35;;;;;;;4.92;64.15;99460.06;5072579;28;20373;-59
2022/03/30 06:14:46;;;;;;;15.85;7.38;;;;;;;5.09;63.92;99457.22;5069763;28;20411;-59
2022/03/30 06:17:12;;;;;;;21.88;9.27;;;;;;;5.16;63.75;99461.47;5073289;28;20029;-59
2022/03/30 06:19:39;;;;;;;19.25;7.70;;;;;;;5.29;63.68;99466.50;5064108;28;20071;-59
2022/03/30 06:22:08;;;;;;;16.52;8.52;;;;;;;5.43;63.13;99461.97;5056050;28;20388;-59
2022/03/30 06:24:41;;;;;;;14.25;6.88;;;;;;;5.39;63.18;99465.50;5070260;28;20066;-59
2022/03/30 06:27:07;;;;;;;16.95;7.43;;;;;;;5.31;63.50;99464.75;5072272;28;20099;-58
2022/03/30 06:29:34;;;;;;;15.07;7.68;;;;;;;4.97;64.40;99461.75;5073007;28;20119;-58
2022/03/30 06:32:01;;;;;;;15.20;7.97;;;;;;;5.00;64.62;99477.34;5072759;28;20113;-58
2022/03/30 06:34:26;;;;;;;15.85;9.00;;;;;;;4.81;65.07;99481.91;5072875;28;20028;-59
2022/03/30 06:36:53;;;;;;;26.92;13.05;;;;;;;4.47;66.37;99478.84;5072950;28;20391;-59
2022/03/30 06:39:18;;;;;;;22.63;13.02;;;;;;;4.66;66.05;99486.41;5072898;28;20035;-59
2022/03/30 06:41:44;;;;;;;22.42;11.82;;;;;;;4.87;65.02;99484.47;5072466;28;20107;-58
2022/03/30 06:44:10;;;;;;;18.42;9.98;;;;;;;4.69;65.44;99483.78;5072973;28;20466;-59
2022/03/30 06:46:38;;;;;;;18.52;9.70;;;;;;;4.88;64.52;99491.38;5072825;28;20029;-59
2022/03/30 06:49:05;;;;;;;19.20;10.60;;;;;;;4.99;64.28;99499.91;5067661;28;20083;-59
2022/03/30 06:51:31;;;;;;;20.88;11.80;;;;;;;4.84;64.58;99498.34;5071631;28;20028;-59
2022/03/30 06:53:56;;;;;;;21.00;11.05;;;;;;;4.76;65.36;99500.19;5076042;28;20120;-59
2022/03/30 06:56:22;;;;;;;19.95;10.60;;;;;;;4.80;64.82;99509.69;5076577;28;20032;-59
2022/03/30 06:58:47;;;;;;;19.63;10.20;;;;;;;4.85;64.54;99507.88;5076720;28;20074;-59
2022/03/30 07:01:15;;;;;;;18.40;10.45;;;;;;;4.90;64.22;99526.91;5076574;28;20029;-58
2022/03/30 07:03:41;;;;;;;15.75;9.52;;;;;;;4.88;63.76;99522.63;5075715;28;20526;-59
2022/03/30 07:06:06;;;;;;;17.17;9.70;;;;;;;4.80;63.12;99529.66;5076290;28;20036;-60
2022/03/30 07:11:17;;;;;;;18.50;9.20;;;;;;;5.00;62.23;99538.06;5076383;28;20134;-59
2022/03/30 07:13:42;;;;;;;15.75;11.05;;;;;;;5.02;62.05;99541.50;5076149;28;20032;-59
2022/03/30 07:16:08;;;;;;;17.55;9.95;;;;;;;4.87;62.31;99541.72;5075002;28;20036;-59
2022/03/30 07:18:33;;;;;;;15.27;8.93;;;;;;;4.32;62.75;99560.50;5075998;28;20028;-58
2022/03/30 07:20:59;;;;;;;23.98;10.80;;;;;;;3.97;63.41;99574.66;5076308;28;20387;-58
2022/03/30 07:23:24;;;;;;;19.17;9.50;;;;;;;3.77;64.00;99585.19;5075796;28;20521;-59
2022/03/30 07:25:51;;;;;;;17.48;10.38;;;;;;;3.72;64.20;99583.53;5075898;28;20040;-59
2022/03/30 07:28:17;;;;;;;17.88;10.40;;;;;;;3.60;64.38;99582.72;5076227;28;20036;-58
2022/03/30 07:30:43;;;;;;;18.88;9.65;;;;;;;3.49;65.18;99589.72;5075901;28;20174;-57
2022/03/30 07:33:09;;;;;;;16.33;9.32;;;;;;;3.67;64.39;99592.22;5075779;28;20429;-56
2022/03/30 07:35:35;;;;;;;16.02;9.52;;;;;;;3.47;64.65;99596.63;5076121;28;20116;-58
2022/03/30 07:38:01;;;;;;;14.18;7.85;;;;;;;3.42;64.86;99598.41;5074526;28;20173;-57
2022/03/30 07:40:29;;;;;;;13.82;7.53;;;;;;;3.32;64.47;99605.38;5075960;28;20119;-58
2022/03/30 07:42:56;;;;;;;12.32;7.20;;;;;;;3.32;63.88;99622.69;5075691;28;20085;-57
2022/03/30 07:45:23;;;;;;;10.40;6.45;;;;;;;3.30;63.67;99607.09;5075557;28;20040;-59
2022/03/30 07:47:49;;;;;;;10.07;5.50;;;;;;;3.23;63.75;99623.56;5074916;28;20040;-57
2022/03/30 07:50:14;;;;;;;10.60;5.93;;;;;;;3.33;63.38;99619.22;5074111;28;20500;-57
2022/03/30 07:52:41;;;;;;;12.70;5.75;;;;;;;3.48;62.82;99629.53;5074017;28;20036;-58
2022/03/30 07:55:07;;;;;;;14.77;5.45;;;;;;;3.39;63.28;99624.38;5074093;28;20092;-56
2022/03/30 07:57:35;;;;;;;8.63;4.95;;;;;;;3.43;62.96;99631.28;5072728;28;20032;-59
2022/03/30 08:00:04;;;;;;;12.57;5.13;;;;;;;3.46;63.13;99628.69;5073569;28;20060;-57
2022/03/30 08:02:29;;;;;;;9.00;4.22;;;;;;;3.39;63.64;99634.75;5072488;28;20028;-57
2022/03/30 08:04:55;;;;;;;10.70;4.25;;;;;;;3.53;63.54;99642.50;5073088;28;20115;-58
2022/03/30 08:07:26;;;;;;;9.38;4.03;;;;;;;3.54;63.06;99644.22;5073388;28;20042;-58
2022/03/30 08:09:51;;;;;;;8.65;3.88;;;;;;;3.54;62.60;99645.09;5068338;28;20045;-57
2022/03/30 08:12:17;;;;;;;6.32;3.45;;;;;;;3.46;62.72;99658.09;5075352;28;20035;-57
2022/03/30 08:14:43;;;;;;;7.28;3.88;;;;;;;3.49;62.46;99658.97;5074184;28;20418;-57
2022/03/30 08:17:10;;;;;;;9.35;3.75;;;;;;;3.52;62.34;99669.38;5075533;28;20032;-57
2022/03/30 08:19:36;;;;;;;12.38;3.78;;;;;;;3.46;61.72;99671.09;5071412;28;20033;-58
2022/03/30 08:24:46;;;;;;;9.00;3.58;;;;;;;3.29;61.62;99685.03;5055449;28;20039;-57
2022/03/30 08:27:20;;;;;;;11.07;4.13;;;;;;;3.22;61.42;99681.56;5055263;28;20444;-57
2022/03/30 08:29:46;;;;;;;5.45;3.20;;;;;;;3.44;61.20;99695.38;5053933;28;20033;-56
2022/03/30 08:32:13;;;;;;;6.75;3.40;;;;;;;3.52;60.84;99691.00;5055106;28;20059;-57
2022/03/30 08:34:39;;;;;;;15.68;8.00;;;;;;;3.57;60.55;99696.16;5055448;28;20021;-58
2022/03/30 08:37:05;;;;;;;5.40;2.80;;;;;;;3.64;60.61;99711.72;5054825;28;20453;-57
2022/03/30 08:39:33;;;;;;;4.20;2.10;;;;;;;3.48;61.01;99707.47;5053774;28;20120;-57
2022/03/30 08:41:59;;;;;;;6.07;2.53;;;;;;;3.56;60.88;99716.09;5053589;28;20432;-57
2022/03/30 08:44:25;;;;;;;7.38;2.58;;;;;;;3.66;60.64;99728.16;5054601;28;20033;-57
2022/03/30 08:46:51;;;;;;;7.30;2.53;;;;;;;3.37;61.01;99724.81;5054655;28;20120;-56
2022/03/30 08:49:16;;;;;;;7.28;2.80;;;;;;;3.46;61.06;99724.78;5053643;28;20124;-57
2022/03/30 08:51:49;;;;;;;4.43;2.67;;;;;;;3.50;60.08;99731.69;5054689;28;20434;-56
2022/03/30 08:54:17;;;;;;;4.07;2.20;;;;;;;3.54;59.81;99727.34;5054955;28;20029;-57
2022/03/30 08:56:43;;;;;;;6.85;2.35;;;;;;;3.69;59.29;99727.28;5054714;28;20037;-57
2022/03/30 08:59:10;;;;;;;6.80;2.40;;;;;;;3.94;58.88;99728.91;5054976;28;20388;-58
2022/03/30 09:01:41;;;;;;;7.57;2.28;;;;;;;3.95;58.22;99729.78;5061209;28;20067;-58
2022/03/30 09:04:11;;;;;;;3.88;2.13;;;;;;;3.93;57.74;99737.56;5056896;28;20036;-59
2022/03/30 09:06:41;;;;;;;4.95;2.10;;;;;;;4.29;57.45;99733.03;5066177;28;20111;-59
2022/03/30 09:09:07;;;;;;;5.97;2.50;;;;;;;4.60;56.75;99741.50;5074253;28;20028;-58
2022/03/30 09:11:41;;;;;;;3.92;2.28;;;;;;;4.66;55.63;99744.03;5060203;28;20120;-59
2022/03/30 09:14:09;;;;;;;6.22;2.50;;;;;;;4.80;55.85;99737.88;5060180;28;20058;-58
2022/03/30 09:16:39;;;;;;;6.05;2.33;;;;;;;4.76;55.38;99738.78;5060842;28;20036;-58
2022/03/30 09:19:08;;;;;;;7.57;2.90;;;;;;;4.53;55.95;99734.59;5060528;28;20024;-58
2022/03/30 09:21:43;;;;;;;7.53;2.13;;;;;;;4.59;55.13;99750.19;5073903;28;20032;-58
2022/03/30 09:24:08;;;;;;;4.03;1.85;;;;;;;4.54;55.94;99748.47;5074139;28;20039;-58
2022/03/30 09:26:35;;;;;;;7.13;2.78;;;;;;;4.80;55.84;99743.09;5072717;28;20040;-56
2022/03/30 09:29:02;;;;;;;9.15;3.60;;;;;;;4.72;55.18;99748.34;5074313;28;20047;-59
2022/03/30 09:31:27;;;;;;;4.43;2.05;;;;;;;4.77;54.57;99741.34;5073758;28;20041;-57
2022/03/30 09:33:53;;;;;;;4.68;2.00;;;;;;;4.79;54.52;99747.44;5073741;28;20396;-57
2022/03/30 09:36:30;;;;;;;6.47;2.80;;;;;;;4.65;54.22;99751.88;5073768;28;20404;-58
2022/03/30 09:38:55;;;;;;;3.92;2.20;;;;;;;4.61;54.20;99747.56;5073889;28;20542;-59
2022/03/30 09:41:21;;;;;;;4.63;2.40;;;;;;;4.85;53.72;99759.50;5073810;28;20036;-59
2022/03/30 09:43:46;;;;;;;2.63;1.30;;;;;;;4.84;53.27;99744.78;5073818;28;20040;-59
2022/03/30 09:46:15;;;;;;;5.25;2.33;;;;;;;5.00;53.39;99754.19;5073751;28;20044;-58
2022/03/30 09:48:52;;;;;;;4.63;2.10;;;;;;;5.12;52.59;99748.00;5073620;28;20090;-59
2022/03/30 09:51:21;;;;;;;4.63;1.95;;;;;;;5.29;52.89;99753.03;5073519;28;20032;-57
2022/03/30 09:53:48;;;;;;;6.50;2.13;;;;;;;5.63;52.14;99754.41;5073423;28;20392;-58
2022/03/30 09:56:21;;;;;;;3.72;1.83;;;;;;;5.93;51.36;99747.97;5073636;28;20533;-57
2022/03/30 09:58:47;;;;;;;8.32;4.07;;;;;;;6.34;50.94;99748.28;5073114;28;20131;-58
2022/03/30 10:01:29;;;;;;;7.35;3.45;;;;;;;6.26;49.33;99750.16;5073645;28;20117;-57
2022/03/30 10:03:57;;;;;;;17.83;13.20;;;;;;;6.34;49.65;99749.19;5073223;28;20028;-59
2022/03/30 10:06:28;;;;;;;11.48;6.60;;;;;;;6.46;49.16;99749.84;5073611;28;20111;-59
2022/03/30 10:08:54;;;;;;;4.20;1.33;;;;;;;6.09;49.15;99759.06;5073243;28;20027;-59
2022/03/30 10:11:21;;;;;;;2.55;1.10;;;;;;;6.02;49.86;99757.41;5071295;28;20110;-58
2022/03/30 10:13:50;;;;;;;4.13;1.17;;;;;;;5.83;49.96;99756.78;5070307;28;20041;-59
2022/03/30 10:16:17;;;;;;;8.60;3.80;;;;;;;5.93;50.12;99755.78;5072916;28;20467;-58
2022/03/30 10:18:44;;;;;;;4.88;2.72;;;;;;;5.99;50.16;99754.88;5073261;28;20060;-59
2022/03/30 10:21:24;;;;;;;6.57;3.00;;;;;;;5.71;50.01;99762.13;5073335;28;20036;-58
2022/03/30 10:24:08;;;;;;;5.57;2.70;;;;;;;5.53;50.23;99757.13;5071982;28;20025;-58
2022/03/30 10:26:48;;;;;;;3.80;1.95;;;;;;;5.59;50.29;99751.84;5073205;28;20082;-58
2022/03/30 10:29:16;;;;;;;4.80;2.70;;;;;;;5.47;50.52;99765.88;5077546;28;20028;-59
2022/03/30 10:31:41;;;;;;;2.13;1.30;;;;;;;5.60;51.21;99759.66;5077121;28;20383;-58
2022/03/30 10:34:27;;;;;;;3.20;1.15;;;;;;;5.60;50.46;99757.03;5077221;28;20036;-58
2022/03/30 10:37:09;;;;;;;5.68;1.10;;;;;;;5.24;50.92;99762.66;5077148;28;20037;-58
2022/03/30 10:40:02;;;;;;;3.15;1.50;;;;;;;5.18;51.76;99761.81;5077543;28;20032;-58
2022/03/30 10:42:49;;;;;;;;;;;;;;;5.15;51.95;99763.59;5077428;28;20634;-58
2022/03/30 10:45:43;;;;;;;5.43;2.97;;;;;;;5.14;51.67;99770.53;5076934;28;19920;-58
2022/03/30 10:48:44;;;;;;;5.47;2.35;;;;;;;5.08;51.90;99765.38;5077417;28;20115;-58
2022/03/30 10:51:15;;;;;;;1.95;1.42;;;;;;;5.29;51.54;99768.66;5075343;28;20043;-58
2022/03/30 10:53:46;;;;;;;3.72;0.98;;;;;;;5.08;51.16;99769.75;5076985;28;20031;-58
2022/03/30 10:56:24;;;;;;;2.67;1.70;;;;;;;5.27;51.21;99770.44;5077181;28;20054;-58
2022/03/30 10:58:50;;;;;;;16.27;11.05;;;;;;;5.37;51.53;99778.13;5077080;28;20048;-58
2022/03/30 11:01:21;;;;;;;39.55;24.95;;;;;;;5.38;51.42;99779.84;5076899;28;20471;-58
2022/03/30 11:04:18;;;;;;;26.35;19.15;;;;;;;5.60;50.28;99779.63;5076536;28;20044;-58
2022/03/30 11:07:04;;;;;;;6.47;4.00;;;;;;;5.44;51.49;99768.50;5081812;28;20024;-57
2022/03/30 11:09:32;;;;;;;4.30;2.28;;;;;;;5.43;51.53;99783.28;5072545;28;20404;-56
2022/03/30 11:12:02;;;;;;;3.33;1.60;;;;;;;5.26;52.17;99789.53;5072609;28;20040;-60
2022/03/30 11:14:33;;;;;;;7.57;1.60;;;;;;;5.35;51.94;99784.25;5069844;28;20028;-59
2022/03/30 11:17:02;;;;;;;4.57;1.45;;;;;;;5.59;51.74;99784.00;5070877;28;20047;-57
2022/03/30 11:19:49;;;;;;;2.85;1.00;;;;;;;5.73;51.21;99775.16;5074380;28;20113;-59
2022/03/30 11:22:28;;;;;;;4.82;2.40;;;;;;;6.20;49.95;99771.13;5076035;28;20456;-57
2022/03/30 11:25:13;;;;;;;11.60;6.97;;;;;;;6.43;49.80;99774.28;5076158;28;20029;-57
2022/03/30 11:27:39;;;;;;;3.95;1.90;;;;;;;6.59;49.41;99773.16;5070661;28;20044;-58
2022/03/30 11:30:15;;;;;;;4.55;1.40;;;;;;;6.25;48.95;99778.00;5068093;28;20044;-58
2022/03/30 11:32:55;;;;;;;2.17;0.98;;;;;;;6.55;48.10;99784.53;5069732;28;20089;-57
2022/03/30 11:35:25;;;;;;;2.40;1.25;;;;;;;6.58;48.68;99779.28;5075346;28;20077;-57
2022/03/30 11:38:03;;;;;;;2.08;1.25;;;;;;;6.64;48.02;99788.75;5072087;28;20032;-56
2022/03/30 11:40:28;;;;;;;2.38;1.13;;;;;;;6.52;49.12;99781.09;5073698;28;20029;-57
2022/03/30 11:42:57;;;;;;;3.72;1.15;;;;;;;6.62;48.44;99786.19;5057124;28;20458;-57
2022/03/30 11:45:25;;;;;;;8.13;2.00;;;;;;;6.47;48.06;99786.41;5056682;28;20408;-55
2022/03/30 11:47:51;;;;;;;3.92;1.70;;;;;;;6.62;47.94;99778.34;5062567;28;20037;-57
2022/03/30 11:50:32;;;;;;;3.60;1.90;;;;;;;6.81;47.65;99784.13;5075485;28;20107;-56
2022/03/30 11:53:02;;;;;;;3.00;1.70;;;;;;;7.23;47.06;99783.44;5075928;28;20434;-57